Latest Coastal Weather Observations for Legendre Island

IDW60701

Issued at 8:42 am WST Sunday 1 March 2015 (issued every 10 minutes, with the page automatically refreshed every 10 minutes)

About coastal observations | Map of coastal stations | Coastal observations for WA | Marine services | Other Formats
Station Details ID: 004095 Name: LEGENDRE ISLAND Lat: -20.36 Lon: 116.84 Height: 29.0 m
Data from the previous 72 hours. | See also: Recent months for locations in Western Australia
Date/Time
WST
Temp

°C
Wind Pressure Rain
since 9am
mm
Weather Cloud Vis
km
Sea
Height
m
Swell
Dir
 
Speed
knots
Gust
knots
hPa Trend Height
m
Period
s
Dir
01/08:30am 30.2 W 10 11 1008.3 - - - - - - - - -
01/08:00am 29.3 W 9 11 1008.2 - - - - - - - - -
01/07:30am 28.1 W 9 11 1008.0 - - - - - - - - -
01/07:00am 28.0 W 10 13 1007.9 - - - - - - - - -
01/06:30am 27.4 W 11 14 1007.5 - - - - - - - - -
01/06:00am 27.1 W 11 13 1007.2 - - - - - - - - -
01/05:30am 27.3 W 10 13 1006.9 - - - - - - - - -
01/05:00am 27.1 W 11 13 1006.6 - - - - - - - - -
01/04:30am 27.1 W 11 14 1006.4 - - - - - - - - -
01/04:00am 27.1 W 12 14 1006.3 - - - - - - - - -
01/03:30am 27.1 W 12 13 1006.0 - - - - - - - - -
01/03:00am 27.0 W 12 14 1006.1 - - - - - - - - -
01/02:30am 27.3 W 13 15 1006.0 - - - - - - - - -
01/02:00am 27.1 W 12 15 1006.2 - - - - - - - - -
01/01:30am 27.2 W 11 14 1006.8 - - - - - - - - -
01/01:00am 27.2 WSW 12 15 1007.1 - - - - - - - - -
01/12:30am 27.3 WSW 15 19 1007.2 - - - - - - - - -
01/12:00am 27.5 WSW 16 20 1007.2 - - - - - - - - -
 
Date/Time
WST
Temp

°C
Wind Pressure Rain
since 9am
mm
Weather Cloud Vis
km
Sea
Height
m
Swell
Dir
 
Speed
knots
Gust
knots
hPa Trend Height
m
Period
s
Dir
28/11:30pm 27.7 WSW 17 20 1007.2 - - - - - - - - -
28/11:00pm 27.7 W 14 18 1007.4 - - - - - - - - -
28/10:30pm 27.8 W 14 17 1007.6 - - - - - - - - -
28/10:00pm 27.8 W 14 16 1007.9 - - - - - - - - -
28/09:30pm 27.8 W 14 17 1007.7 - - - - - - - - -
28/09:00pm 27.8 W 14 17 1007.8 - - - - - - - - -
28/08:30pm 28.0 W 14 16 1007.4 - - - - - - - - -
28/08:00pm 28.0 W 14 17 1006.8 - - - - - - - - -
28/07:30pm 28.1 W 15 17 1006.1 - - - - - - - - -
28/07:00pm 28.1 W 15 17 1005.7 - - - - - - - - -
28/06:30pm 28.6 W 14 18 1005.4 - - - - - - - - -
28/06:00pm 29.3 W 14 17 1005.2 - - - - - - - - -
28/05:30pm 30.1 W 15 19 1005.1 - - - - - - - - -
28/05:00pm 30.4 WNW 16 20 1005.0 - - - - - - - - -
28/04:30pm 31.1 WNW 15 18 1005.0 - - - - - - - - -
28/04:00pm 30.8 WNW 15 17 1005.4 - - - - - - - - -
28/03:30pm 31.7 WNW 14 17 1005.6 - - - - - - - - -
28/03:00pm 32.0 WNW 13 16 1005.7 - - - - - - - - -
28/02:30pm 31.5 WNW 13 16 1005.9 - - - - - - - - -
28/02:00pm 31.5 WNW 13 15 1006.2 - - - - - - - - -
28/01:30pm 31.5 WNW 13 15 1006.4 - - - - - - - - -
28/01:00pm 31.9 WNW 11 13 1006.6 - - - - - - - - -
28/12:30pm 31.9 WNW 9 11 1007.1 - - - - - - - - -
28/12:00pm 31.9 W 10 12 1007.4 - - - - - - - - -
28/11:30am 32.0 W 10 12 1007.7 - - - - - - - - -
28/11:00am 31.8 W 10 13 1008.0 - - - - - - - - -
28/10:30am 31.3 W 10 13 1007.9 - - - - - - - - -
28/10:00am 30.7 W 10 12 1008.1 - - - - - - - - -
28/09:30am 30.6 W 10 12 1008.1 - - - - - - - - -
28/09:00am 30.3 W 10 12 1008.0 - - - - - - - - -
28/08:30am 30.0 W 10 13 1008.0 - - - - - - - - -
28/08:00am 29.4 W 10 12 1007.7 - - - - - - - - -
28/07:30am 28.6 W 9 11 1007.5 - - - - - - - - -
28/07:00am 28.0 W 10 13 1007.2 - - - - - - - - -
28/06:30am 27.6 W 11 12 1006.9 - - - - - - - - -
28/06:00am 27.4 W 11 13 1006.7 - - - - - - - - -
28/05:30am 27.4 W 10 12 1006.5 - - - - - - - - -
28/05:00am 27.5 WSW 10 13 1006.6 - - - - - - - - -
28/04:30am 27.4 WSW 11 13 1006.3 - - - - - - - - -
28/04:00am 27.5 WSW 10 12 1006.0 - - - - - - - - -
28/03:30am 27.4 W 11 13 1005.9 - - - - - - - - -
28/03:00am 27.5 W 12 14 1006.0 - - - - - - - - -
28/02:30am 27.3 W 12 15 1005.9 - - - - - - - - -
28/02:00am 27.3 W 12 14 1006.1 - - - - - - - - -
28/01:30am 27.5 W 11 13 1006.4 - - - - - - - - -
28/01:00am 27.5 W 10 13 1006.7 - - - - - - - - -
28/12:30am 27.6 W 10 12 1006.9 - - - - - - - - -
28/12:00am 27.8 W 12 13 1007.2 - - - - - - - - -
 
Date/Time
WST
Temp

°C
Wind Pressure Rain
since 9am
mm
Weather Cloud Vis
km
Sea
Height
m
Swell
Dir
 
Speed
knots
Gust
knots
hPa Trend Height
m
Period
s
Dir
27/11:30pm 27.6 WSW 12 14 1007.4 - - - - - - - - -
27/11:00pm 27.8 WSW 14 17 1007.4 - - - - - - - - -
27/10:30pm 27.8 W 12 15 1007.5 - - - - - - - - -
27/10:00pm 28.0 W 12 13 1007.2 - - - - - - - - -
27/09:30pm 28.0 W 11 15 1007.2 - - - - - - - - -
27/09:00pm 28.1 W 12 13 1007.0 - - - - - - - - -
27/08:30pm 28.2 W 12 14 1006.7 - - - - - - - - -
27/08:00pm 28.1 W 11 13 1006.2 - - - - - - - - -
27/07:30pm 27.9 W 12 14 1005.6 - - - - - - - - -
27/07:00pm 27.8 WSW 12 15 1005.0 - - - - - - - - -
27/06:30pm 28.0 WSW 12 15 1004.9 - - - - - - - - -
27/06:00pm 28.6 WSW 12 16 1005.0 - - - - - - - - -
27/05:30pm 29.3 WSW 14 17 1004.2 - - - - - - - - -
27/05:00pm 30.3 WSW 15 18 1004.1 - - - - - - - - -
27/04:30pm 31.1 WSW 14 16 1004.3 - - - - - - - - -
27/04:00pm 30.8 WSW 15 18 1003.9 - - - - - - - - -
27/03:30pm 31.3 WSW 16 19 1003.9 - - - - - - - - -
27/03:00pm 31.0 WSW 16 19 1004.4 - - - - - - - - -
27/02:30pm 31.5 WSW 15 17 1005.0 - - - - - - - - -
27/02:00pm 31.7 WSW 15 17 1005.2 - - - - - - - - -
27/01:30pm 32.7 WSW 14 17 1005.6 - - - - - - - - -
27/01:00pm 32.1 W 13 16 1005.9 - - - - - - - - -
27/12:30pm 31.8 W 13 15 1006.1 - - - - - - - - -
27/12:00pm 31.9 W 14 16 1006.3 - - - - - - - - -
27/11:30am 32.2 WSW 13 15 1006.4 - - - - - - - - -
27/11:00am 30.6 WSW 11 13 1006.6 - - - - - - - - -
27/10:30am 30.7 WSW 12 14 1006.8 - - - - - - - - -
27/10:00am 30.3 W 11 13 1007.3 - - - - - - - - -
27/09:30am 30.8 WSW 9 11 1007.4 - - - - - - - - -
27/09:00am 30.2 W 8 10 1007.4 - - - - - - - - -
27/08:30am 29.7 SW 8 9 1007.5 - - - - - - - - -
27/08:00am 29.4 SW 8 10 1007.2 - - - - - - - - -
27/07:30am 28.9 SSW 9 10 1006.9 - - - - - - - - -
27/07:00am 28.5 SW 9 10 1006.4 - - - - - - - - -
27/06:30am 28.0 SW 7 9 1006.5 - - - - - - - - -
27/06:00am 27.7 SW 10 12 1006.1 - - - - - - - - -
27/05:30am 27.9 WSW 12 14 1005.7 - - - - - - - - -
27/05:00am 27.5 SW 10 11 1005.8 - - - - - - - - -
27/04:30am 27.6 WSW 11 14 1005.6 - - - - - - - - -
27/04:00am 27.5 W 10 13 1005.3 - - - - - - - - -
27/03:30am 27.6 WSW 10 12 1005.1 - - - - - - - - -
27/03:00am 27.6 WSW 12 14 1005.3 - - - - - - - - -
27/02:30am 27.6 WSW 12 14 1005.5 - - - - - - - - -
27/02:00am 27.6 WSW 14 16 1005.5 - - - - - - - - -
27/01:30am 27.6 WSW 14 17 1005.4 - - - - - - - - -
27/01:00am 27.7 WSW 15 18 1005.5 - - - - - - - - -
27/12:30am 27.6 WSW 14 17 1005.9 - - - - - - - - -
27/12:00am 27.6 WSW 14 17 1006.4 - - - - - - - - -
 
Date/Time
WST
Temp

°C
Wind Pressure Rain
since 9am
mm
Weather Cloud Vis
km
Sea
Height
m
Swell
Dir
 
Speed
knots
Gust
knots
hPa Trend Height
m
Period
s
Dir
26/11:30pm 27.8 WSW 14 18 1006.8 - - - - - - - - -
26/11:00pm 27.8 WSW 15 18 1007.1 - - - - - - - - -
26/10:30pm 27.9 SW 17 19 1006.9 - - - - - - - - -
26/10:00pm 27.8 SW 14 17 1007.2 - - - - - - - - -
26/09:30pm 27.8 WSW 16 19 1006.7 - - - - - - - - -
26/09:00pm 27.9 WSW 16 19 1006.4 - - - - - - - - -
26/08:30pm 27.8 WSW 17 21 1005.8 - - - - - - - - -
26/08:00pm 28.0 WSW 18 21 1005.7 - - - - - - - - -
26/07:30pm 28.0 WSW 17 21 1005.3 - - - - - - - - -
26/07:00pm 28.4 WSW 19 23 1005.0 - - - - - - - - -
26/06:30pm 28.4 WSW 18 21 1004.7 - - - - - - - - -
26/06:00pm 28.9 WSW 18 21 1004.4 - - - - - - - - -
26/05:30pm 29.6 WSW 18 22 1004.3 - - - - - - - - -
26/05:00pm 29.6 WSW 19 22 1004.2 - - - - - - - - -
26/04:30pm 31.1 WSW 16 20 1004.3 - - - - - - - - -
26/04:00pm 31.4 WSW 17 20 1004.6 - - - - - - - - -
26/03:30pm 32.5 W 16 19 1004.8 - - - - - - - - -
26/03:00pm 31.9 W 16 19 1005.0 - - - - - - - - -
26/02:30pm 31.6 W 16 19 1005.5 - - - - - - - - -
26/02:00pm 32.2 W 16 19 1005.6 - - - - - - - - -
26/01:30pm 32.5 W 15 17 1005.8 - - - - - - - - -
26/01:00pm 32.1 W 14 16 1006.3 - - - - - - - - -
26/12:30pm 32.2 W 13 15 1006.6 - - - - - - - - -
26/12:00pm 33.4 W 12 14 1006.8 - - - - - - - - -
26/11:30am 32.8 W 11 14 1007.2 - - - - - - - - -
26/11:00am 32.1 W 9 12 1007.5 - - - - - - - - -
26/10:30am 31.7 WSW 9 12 1007.5 - - - - - - - - -
26/10:00am 31.7 SW 9 11 1007.8 - - - - - - - - -
26/09:30am 30.8 SW 7 10 1008.1 - - - - - - - - -
26/09:00am 30.6 SW 9 11 1008.2 - - - - - - - - -

Other Formats:

Comma delimited format used in spreadsheet applications
http://www.bom.gov.au/fwo/IDW60701/IDW60701.94307.axf

JavaScript Object Notation format (JSON) in row-major order
http://www.bom.gov.au/fwo/IDW60701/IDW60701.94307.json